Time;durP1;ratioP1;P1;durP2;ratioP2;P2;SDS_P1;SDS_P2;PMS_P1;PMS_P2;Temp;Humidity;BMP_temperature;BMP_pressure;BME280_temperature;BME280_humidity;BME280_pressure;Samples;Min_cycle;Max_cycle;Signal;HPM_P1;HPM_P2
2023/10/30 00:00:25;;;;;;;11.40;3.80;;;9.10;99.90;;;;;;5054956;28;20021;-92
2023/10/30 00:02:50;;;;;;;19.73;4.68;;;9.10;99.90;;;;;;5053366;28;20032;-94
2023/10/30 00:05:16;;;;;;;17.70;4.93;;;9.10;99.90;;;;;;5053663;28;20029;-94
2023/10/30 00:07:42;;;;;;;12.18;3.60;;;9.10;99.90;;;;;;5053855;28;20028;-94
2023/10/30 00:10:08;;;;;;;17.98;4.18;;;9.00;99.90;;;;;;5053733;28;20027;-93
2023/10/30 00:12:33;;;;;;;17.40;4.00;;;9.00;99.90;;;;;;5052225;28;20032;-93
2023/10/30 00:15:03;;;;;;;14.27;3.88;;;8.90;99.90;;;;;;5053691;28;20020;-94
2023/10/30 00:17:30;;;;;;;16.15;3.22;;;8.90;99.90;;;;;;5054062;28;20065;-93
2023/10/30 00:19:56;;;;;;;9.50;2.97;;;8.80;99.90;;;;;;5054813;28;20437;-93
2023/10/30 00:22:21;;;;;;;20.17;4.03;;;8.80;99.90;;;;;;5054365;28;20029;-95
2023/10/30 00:24:47;;;;;;;20.85;3.78;;;8.80;99.90;;;;;;5053734;28;20096;-93
2023/10/30 00:27:13;;;;;;;18.48;3.75;;;8.80;99.90;;;;;;5052966;28;20079;-94
2023/10/30 00:29:40;;;;;;;18.05;4.00;;;8.70;99.90;;;;;;5054088;28;20077;-93
2023/10/30 00:32:07;;;;;;;18.00;4.40;;;8.70;99.90;;;;;;5052611;28;20036;-93
2023/10/30 00:34:33;;;;;;;12.90;4.22;;;8.60;99.90;;;;;;5052922;28;20128;-93
2023/10/30 00:36:59;;;;;;;16.85;4.00;;;8.60;99.90;;;;;;5052017;28;20232;-91
2023/10/30 00:39:24;;;;;;;15.13;4.32;;;8.60;99.90;;;;;;5053139;28;20017;-93
2023/10/30 00:41:50;;;;;;;20.58;6.18;;;8.60;99.90;;;;;;5052496;28;20086;-93
2023/10/30 00:44:16;;;;;;;16.02;3.80;;;8.50;99.90;;;;;;5052407;28;20090;-94
2023/10/30 00:46:41;;;;;;;15.65;3.88;;;8.50;99.90;;;;;;5052894;28;20079;-93
2023/10/30 00:49:07;;;;;;;21.95;4.72;;;8.50;99.90;;;;;;5052210;28;20475;-92
2023/10/30 00:51:32;;;;;;;21.35;4.35;;;8.50;99.90;;;;;;5053236;28;20039;-93
2023/10/30 00:53:58;;;;;;;24.92;4.95;;;8.50;99.90;;;;;;5052996;28;20041;-93
2023/10/30 00:56:24;;;;;;;15.00;4.22;;;8.40;99.90;;;;;;5053287;28;20096;-94
2023/10/30 00:58:49;;;;;;;17.85;3.55;;;8.50;99.90;;;;;;5065541;28;20031;-92
2023/10/30 01:01:16;;;;;;;12.55;4.20;;;8.40;99.90;;;;;;5075339;28;20029;-92
2023/10/30 01:03:43;;;;;;;13.00;3.80;;;8.40;99.90;;;;;;5072262;28;20025;-94
2023/10/30 01:06:08;;;;;;;12.75;4.45;;;8.40;99.90;;;;;;5061215;28;20021;-94
2023/10/30 01:08:34;;;;;;;16.17;4.20;;;8.40;99.90;;;;;;5060555;28;20124;-94
2023/10/30 01:11:00;;;;;;;10.75;4.80;;;8.40;99.90;;;;;;5055782;28;20475;-93
2023/10/30 01:13:26;;;;;;;22.38;5.32;;;8.40;99.90;;;;;;5053794;28;20116;-94
2023/10/30 01:15:55;;;;;;;9.90;4.60;;;8.30;99.90;;;;;;5053738;28;20025;-93
2023/10/30 01:18:21;;;;;;;15.95;4.47;;;8.30;99.90;;;;;;5055937;28;20519;-93
2023/10/30 01:20:49;;;;;;;11.35;4.32;;;8.30;99.90;;;;;;5053712;28;20144;-94
2023/10/30 01:23:15;;;;;;;14.07;4.43;;;8.30;99.90;;;;;;5053372;28;20479;-94
2023/10/30 01:25:41;;;;;;;16.35;4.20;;;8.30;99.90;;;;;;5054054;28;20044;-94
2023/10/30 01:28:07;;;;;;;13.27;4.93;;;8.30;99.90;;;;;;5053466;28;20025;-93
2023/10/30 01:30:33;;;;;;;15.98;4.18;;;8.30;99.90;;;;;;5053750;28;20067;-94
2023/10/30 01:32:59;;;;;;;10.82;4.28;;;8.30;99.90;;;;;;5054685;28;20025;-93
2023/10/30 01:35:25;;;;;;;17.10;5.10;;;8.30;99.90;;;;;;5073322;28;20355;-93
2023/10/30 01:37:51;;;;;;;13.85;4.93;;;8.30;99.90;;;;;;5073388;28;20043;-94
2023/10/30 01:40:18;;;;;;;11.50;4.63;;;8.30;99.90;;;;;;5073513;28;20031;-94
2023/10/30 01:42:44;;;;;;;16.48;5.38;;;8.30;99.90;;;;;;5072597;28;20689;-94
2023/10/30 01:45:10;;;;;;;19.75;6.22;;;8.30;99.90;;;;;;5060303;28;20055;-93
2023/10/30 01:47:37;;;;;;;17.10;5.68;;;8.30;99.90;;;;;;5072041;28;20021;-91
2023/10/30 01:50:03;;;;;;;16.25;4.55;;;8.30;99.90;;;;;;5072313;28;20033;-91
2023/10/30 01:52:30;;;;;;;18.92;5.57;;;8.30;99.90;;;;;;5072083;28;20131;-92
2023/10/30 01:54:56;;;;;;;16.92;5.10;;;8.30;99.90;;;;;;5072032;28;20111;-94
2023/10/30 01:57:23;;;;;;;17.33;5.10;;;8.40;99.90;;;;;;5072066;28;20058;-94
2023/10/30 01:59:50;;;;;;;12.68;4.78;;;8.40;99.90;;;;;;5068944;28;20023;-93
2023/10/30 02:02:20;;;;;;;13.88;5.93;;;8.40;99.90;;;;;;5073040;28;20029;-95
2023/10/30 02:04:46;;;;;;;15.68;4.57;;;8.30;99.90;;;;;;5072522;28;20370;-94
2023/10/30 02:07:12;;;;;;;13.02;4.90;;;8.30;99.90;;;;;;5073032;28;20027;-94
2023/10/30 02:09:40;;;;;;;14.63;4.93;;;8.30;99.90;;;;;;5073056;28;20017;-92
2023/10/30 02:12:07;;;;;;;15.80;5.07;;;8.20;99.90;;;;;;5074916;28;20020;-91
2023/10/30 02:14:33;;;;;;;17.30;5.13;;;8.20;99.90;;;;;;5078051;28;20040;-93
2023/10/30 02:16:59;;;;;;;10.05;4.45;;;8.20;99.90;;;;;;5074414;28;20078;-92
2023/10/30 02:19:26;;;;;;;15.07;4.15;;;8.20;99.90;;;;;;5075332;28;20033;-92
2023/10/30 02:21:53;;;;;;;14.15;4.70;;;8.30;99.90;;;;;;5072874;28;20036;-94
2023/10/30 02:24:20;;;;;;;15.55;4.85;;;8.30;99.90;;;;;;5072957;28;20023;-94
2023/10/30 02:26:50;;;;;;;22.05;5.18;;;8.30;99.90;;;;;;5072231;28;20032;-94
2023/10/30 02:29:16;;;;;;;13.48;4.95;;;8.30;99.90;;;;;;5072014;28;20059;-93
2023/10/30 02:31:42;;;;;;;17.67;4.75;;;8.30;99.90;;;;;;5073628;28;20116;-92
2023/10/30 02:34:08;;;;;;;16.13;5.30;;;8.30;99.90;;;;;;5072622;28;20048;-91
2023/10/30 02:36:34;;;;;;;17.08;5.18;;;8.40;99.90;;;;;;5075319;28;20032;-92
2023/10/30 02:39:02;;;;;;;14.55;5.10;;;8.30;99.90;;;;;;5075302;28;20312;-94
2023/10/30 02:41:31;;;;;;;13.98;4.03;;;8.40;99.90;;;;;;5075297;28;20024;-94
2023/10/30 02:43:57;;;;;;;18.55;4.82;;;8.40;99.90;;;;;;5076153;28;20021;-95
2023/10/30 02:46:23;;;;;;;13.55;4.70;;;8.40;99.90;;;;;;5075930;28;20031;-94
2023/10/30 02:48:50;;;;;;;18.58;4.60;;;8.40;99.90;;;;;;5075418;28;20526;-92
2023/10/30 02:51:16;;;;;;;16.80;6.47;;;8.40;99.90;;;;;;5075387;28;20029;-94
2023/10/30 02:53:41;;;;;;;14.70;5.00;;;8.50;99.90;;;;;;5074958;28;20023;-93
2023/10/30 02:56:07;;;;;;;20.67;4.45;;;8.40;99.90;;;;;;5075460;28;20029;-94
2023/10/30 02:58:33;;;;;;;15.00;4.20;;;8.50;99.90;;;;;;5074794;28;20052;-94
2023/10/30 03:00:59;;;;;;;19.08;4.07;;;8.50;99.90;;;;;;5074388;28;20020;-95
2023/10/30 03:03:25;;;;;;;16.58;4.13;;;8.50;99.90;;;;;;5074680;28;20024;-94
2023/10/30 03:05:50;;;;;;;12.95;4.05;;;8.50;99.90;;;;;;5074510;28;20527;-94
2023/10/30 03:08:16;;;;;;;11.02;3.30;;;8.60;99.90;;;;;;5074655;28;20028;-94
2023/10/30 03:10:42;;;;;;;10.10;4.55;;;8.60;99.90;;;;;;5074282;28;20021;-95
2023/10/30 03:13:07;;;;;;;12.57;5.00;;;8.50;99.90;;;;;;5074915;28;20033;-94
2023/10/30 03:15:33;;;;;;;15.88;4.68;;;8.40;99.90;;;;;;5075041;28;20109;-94
2023/10/30 03:17:58;;;;;;;10.35;4.40;;;8.40;99.90;;;;;;5075543;28;20029;-92
2023/10/30 03:20:24;;;;;;;14.45;4.10;;;8.40;99.90;;;;;;5075122;28;20024;-94
2023/10/30 03:22:50;;;;;;;8.45;3.80;;;8.40;99.90;;;;;;5075149;28;20028;-95
2023/10/30 03:25:16;;;;;;;13.27;4.25;;;8.40;99.90;;;;;;5076183;28;20385;-94
2023/10/30 03:27:42;;;;;;;12.90;3.95;;;8.40;99.90;;;;;;5075477;28;20025;-95
2023/10/30 03:30:08;;;;;;;12.23;4.57;;;8.40;99.90;;;;;;5076590;28;20124;-95
2023/10/30 03:32:33;;;;;;;20.23;4.95;;;8.40;99.90;;;;;;5075735;28;20127;-94
2023/10/30 03:34:59;;;;;;;14.95;4.13;;;8.40;99.90;;;;;;5076303;28;20072;-94
2023/10/30 03:37:25;;;;;;;11.90;4.38;;;8.40;99.90;;;;;;5074953;28;20072;-93
2023/10/30 03:39:51;;;;;;;11.73;3.70;;;8.50;99.90;;;;;;5074946;28;20028;-94
2023/10/30 03:42:16;;;;;;;18.30;4.05;;;8.50;99.90;;;;;;5075311;28;20032;-96
2023/10/30 03:44:42;;;;;;;13.40;4.28;;;8.50;99.90;;;;;;5075426;28;20021;-95
2023/10/30 03:47:07;;;;;;;16.73;4.15;;;8.50;99.90;;;;;;5073520;28;20040;-94
2023/10/30 03:49:34;;;;;;;12.27;4.28;;;8.50;99.90;;;;;;5075287;28;20119;-95
2023/10/30 03:51:59;;;;;;;19.92;5.95;;;8.50;99.90;;;;;;5074506;28;20149;-94
2023/10/30 03:54:25;;;;;;;17.52;4.20;;;8.50;99.90;;;;;;5074614;28;20426;-94
2023/10/30 03:56:50;;;;;;;17.52;4.35;;;8.50;99.90;;;;;;5074545;28;20041;-95
2023/10/30 03:59:16;;;;;;;21.55;4.57;;;8.60;99.90;;;;;;5074484;28;20501;-94
2023/10/30 04:01:42;;;;;;;13.35;4.07;;;8.60;99.90;;;;;;5075252;28;20024;-94
2023/10/30 04:04:08;;;;;;;17.67;4.20;;;8.60;99.90;;;;;;5071660;28;20028;-93
2023/10/30 04:06:37;;;;;;;17.33;4.75;;;8.60;99.90;;;;;;5074204;28;20485;-95
2023/10/30 04:09:06;;;;;;;20.08;4.90;;;8.60;99.90;;;;;;5074326;28;20060;-94
2023/10/30 04:11:32;;;;;;;19.48;4.07;;;8.60;99.90;;;;;;5073997;28;20111;-94
2023/10/30 04:13:58;;;;;;;16.88;4.30;;;8.60;99.90;;;;;;5073788;28;20052;-94
2023/10/30 04:16:23;;;;;;;17.00;4.30;;;8.60;99.90;;;;;;5073420;28;20115;-93
2023/10/30 04:18:49;;;;;;;16.27;4.07;;;8.60;99.90;;;;;;5071601;28;20214;-95
2023/10/30 04:21:14;;;;;;;13.77;3.50;;;8.70;99.90;;;;;;5073055;28;20079;-94
2023/10/30 04:23:42;;;;;;;14.27;4.15;;;8.60;99.90;;;;;;5073455;28;20032;-94
2023/10/30 04:26:08;;;;;;;11.65;4.10;;;8.60;99.90;;;;;;5073383;28;20029;-94
2023/10/30 04:28:34;;;;;;;12.32;4.35;;;8.60;99.90;;;;;;5073575;28;20048;-95
2023/10/30 04:31:00;;;;;;;16.58;4.38;;;8.70;99.90;;;;;;5074268;28;20070;-94
2023/10/30 04:33:26;;;;;;;14.48;3.75;;;8.60;99.90;;;;;;5073714;28;20024;-94
2023/10/30 04:35:53;;;;;;;12.65;3.90;;;8.70;99.90;;;;;;5073248;28;20044;-95
2023/10/30 04:38:18;;;;;;;14.80;4.35;;;8.70;99.90;;;;;;5074070;28;20035;-95
2023/10/30 04:40:44;;;;;;;10.82;3.95;;;8.70;99.90;;;;;;5075033;28;20107;-94
2023/10/30 04:43:10;;;;;;;12.02;4.15;;;8.70;99.90;;;;;;5075111;28;20440;-94
2023/10/30 04:45:35;;;;;;;18.75;4.68;;;8.70;99.90;;;;;;5075231;28;20023;-92
2023/10/30 04:48:01;;;;;;;12.75;4.30;;;8.70;99.90;;;;;;5076195;28;20088;-94
2023/10/30 04:50:26;;;;;;;9.82;3.80;;;8.70;99.90;;;;;;5085209;28;20043;-94
2023/10/30 04:52:52;;;;;;;16.20;4.78;;;8.70;99.90;;;;;;5086528;28;20024;-94
2023/10/30 04:55:18;;;;;;;10.60;4.05;;;8.70;99.90;;;;;;5087040;28;20024;-95
2023/10/30 04:57:43;;;;;;;14.13;4.43;;;8.70;99.90;;;;;;5084767;28;20044;-94
2023/10/30 05:00:09;;;;;;;11.93;4.07;;;8.70;99.90;;;;;;5081712;28;20035;-94
2023/10/30 05:02:35;;;;;;;11.13;3.60;;;8.70;99.90;;;;;;5083018;28;20035;-95
2023/10/30 05:05:01;;;;;;;16.63;3.67;;;8.70;99.90;;;;;;5076183;28;20394;-95
2023/10/30 05:07:26;;;;;;;16.10;3.65;;;8.70;99.90;;;;;;5077247;28;20607;-96
2023/10/30 05:09:52;;;;;;;15.30;3.60;;;8.80;99.90;;;;;;5077474;28;20032;-96
2023/10/30 05:12:18;;;;;;;14.70;3.58;;;8.80;99.90;;;;;;5065855;28;20037;-96
2023/10/30 05:14:43;;;;;;;11.57;3.67;;;8.80;99.90;;;;;;5073286;28;20032;-95
2023/10/30 05:17:09;;;;;;;7.45;3.42;;;8.80;99.90;;;;;;5075275;28;20029;-94
2023/10/30 05:19:36;;;;;;;10.88;2.67;;;8.90;99.90;;;;;;5091369;28;20039;-93
2023/10/30 05:22:01;;;;;;;11.90;2.88;;;8.90;99.90;;;;;;5064603;28;20033;-94
2023/10/30 05:24:27;;;;;;;17.00;4.40;;;8.90;99.90;;;;;;5065385;28;20053;-95
2023/10/30 05:26:53;;;;;;;14.20;3.88;;;8.90;99.90;;;;;;5075986;28;20044;-95
2023/10/30 05:29:19;;;;;;;12.32;3.45;;;8.90;99.90;;;;;;5081429;28;20028;-96
2023/10/30 05:31:44;;;;;;;13.43;3.90;;;8.90;99.90;;;;;;5083958;28;20024;-95
2023/10/30 05:34:10;;;;;;;11.27;4.18;;;8.90;99.90;;;;;;5086506;28;20063;-96
2023/10/30 05:36:36;;;;;;;14.10;3.72;;;9.00;99.90;;;;;;5090458;28;20040;-95
2023/10/30 05:39:02;;;;;;;13.82;3.90;;;9.00;99.90;;;;;;5095246;28;20042;-96
2023/10/30 05:41:28;;;;;;;11.20;4.30;;;9.00;99.90;;;;;;5091694;28;20037;-95
2023/10/30 05:43:54;;;;;;;16.50;4.15;;;9.10;99.90;;;;;;5094284;28;20056;-92
2023/10/30 05:46:20;;;;;;;14.63;4.20;;;9.00;99.90;;;;;;5081527;28;20040;-94
2023/10/30 05:48:45;;;;;;;11.43;4.25;;;9.10;99.90;;;;;;5076131;28;20039;-95
2023/10/30 05:51:11;;;;;;;12.80;5.10;;;9.10;99.90;;;;;;5075707;28;20473;-95
2023/10/30 05:53:37;;;;;;;10.60;3.90;;;9.20;99.90;;;;;;5076963;28;20024;-96
2023/10/30 05:56:03;;;;;;;14.95;4.10;;;9.20;99.90;;;;;;5077389;28;20050;-95
2023/10/30 05:58:28;;;;;;;13.63;4.22;;;9.20;99.90;;;;;;5074466;28;20054;-96
2023/10/30 06:00:54;;;;;;;9.10;4.40;;;9.20;99.90;;;;;;5073042;28;20432;-94
2023/10/30 06:03:20;;;;;;;10.88;3.95;;;9.20;99.90;;;;;;5071670;28;20025;-96
2023/10/30 06:05:45;;;;;;;13.27;3.72;;;9.20;99.90;;;;;;5071386;28;20041;-96
2023/10/30 06:08:11;;;;;;;14.95;5.28;;;9.20;99.90;;;;;;5070944;28;20032;-94
2023/10/30 06:10:38;;;;;;;11.63;3.85;;;9.20;99.90;;;;;;5075835;28;20050;-95
2023/10/30 06:13:07;;;;;;;11.07;3.72;;;9.20;99.90;;;;;;5075831;28;20082;-95
2023/10/30 06:15:33;;;;;;;10.57;3.58;;;9.20;99.90;;;;;;5074944;28;20197;-95
2023/10/30 06:18:01;;;;;;;14.73;5.85;;;9.20;99.90;;;;;;5077514;28;20494;-94
2023/10/30 06:20:27;;;;;;;11.25;3.75;;;9.20;99.90;;;;;;5078383;28;20067;-95
2023/10/30 06:22:53;;;;;;;13.73;4.28;;;9.20;99.90;;;;;;5076788;28;20028;-95
2023/10/30 06:25:18;;;;;;;10.05;3.75;;;9.20;99.90;;;;;;5077242;28;20017;-94
2023/10/30 06:27:44;;;;;;;11.43;3.63;;;9.20;99.90;;;;;;5077263;28;20033;-94
2023/10/30 06:30:13;;;;;;;8.23;3.85;;;9.20;99.90;;;;;;5076763;28;20439;-94
2023/10/30 06:32:38;;;;;;;14.63;3.65;;;9.20;99.90;;;;;;5076495;28;20461;-95
2023/10/30 06:35:07;;;;;;;11.90;3.92;;;9.20;99.90;;;;;;5076134;28;20049;-95
2023/10/30 06:37:33;;;;;;;11.48;3.58;;;9.20;99.90;;;;;;5076080;28;20040;-94
2023/10/30 06:39:59;;;;;;;13.27;4.28;;;9.20;99.90;;;;;;5076704;28;20029;-95
2023/10/30 06:42:24;;;;;;;14.43;4.03;;;9.20;99.90;;;;;;5076690;28;20032;-94
2023/10/30 06:44:51;;;;;;;11.77;4.40;;;9.10;99.90;;;;;;5077005;28;20386;-94
2023/10/30 06:47:18;;;;;;;8.02;3.53;;;9.20;99.90;;;;;;5077037;28;20020;-95
2023/10/30 06:49:44;;;;;;;8.80;3.95;;;9.10;99.90;;;;;;5076282;28;20029;-94
2023/10/30 06:52:10;;;;;;;10.40;3.15;;;9.10;99.90;;;;;;5076098;28;20036;-93
2023/10/30 06:54:35;;;;;;;7.30;3.08;;;9.10;99.90;;;;;;5075776;28;20020;-93
2023/10/30 06:57:01;;;;;;;9.05;4.40;;;9.10;99.90;;;;;;5075878;28;20118;-94
2023/10/30 06:59:27;;;;;;;11.23;3.70;;;9.10;99.90;;;;;;5076171;28;20095;-95
2023/10/30 07:01:52;;;;;;;9.55;3.88;;;9.10;99.90;;;;;;5083055;28;20029;-94
2023/10/30 07:04:20;;;;;;;7.82;3.45;;;9.10;99.90;;;;;;5086381;28;20032;-95
2023/10/30 07:06:46;;;;;;;7.82;2.92;;;9.10;99.90;;;;;;5091235;28;20027;-94
2023/10/30 07:09:12;;;;;;;7.43;2.97;;;9.10;99.90;;;;;;5095464;28;20033;-94
2023/10/30 07:11:39;;;;;;;9.43;3.20;;;9.10;99.90;;;;;;5096287;28;20020;-95
2023/10/30 07:14:06;;;;;;;4.60;2.58;;;9.10;99.90;;;;;;5092199;28;20059;-95
2023/10/30 07:16:33;;;;;;;6.63;2.60;;;9.10;99.90;;;;;;5096541;28;20040;-90
2023/10/30 07:19:02;;;;;;;4.72;2.00;;;9.10;99.90;;;;;;5099445;28;20055;-89
2023/10/30 07:21:29;;;;;;;2.85;1.63;;;9.10;99.90;;;;;;5099137;28;20024;-91
2023/10/30 07:23:55;;;;;;;2.05;1.50;;;9.10;99.90;;;;;;5098735;28;20016;-95
2023/10/30 07:26:21;;;;;;;3.55;1.73;;;9.10;99.90;;;;;;5094459;28;20040;-95
2023/10/30 07:28:48;;;;;;;3.20;1.55;;;9.00;99.90;;;;;;5097190;28;20020;-93
2023/10/30 07:31:15;;;;;;;3.15;1.42;;;9.10;99.90;;;;;;5095927;28;20024;-94
2023/10/30 07:33:40;;;;;;;1.67;1.27;;;9.10;99.90;;;;;;5095809;28;20040;-94
2023/10/30 07:36:06;;;;;;;5.95;2.50;;;9.10;99.90;;;;;;5095616;28;20091;-94
2023/10/30 07:38:32;;;;;;;2.65;1.80;;;9.10;99.90;;;;;;5096291;28;20019;-94
2023/10/30 07:40:59;;;;;;;7.68;3.45;;;9.10;99.90;;;;;;5095764;28;20032;-94
2023/10/30 07:43:25;;;;;;;6.47;2.90;;;9.10;99.90;;;;;;5091690;28;20090;-95
2023/10/30 07:45:50;;;;;;;6.78;3.05;;;9.10;99.90;;;;;;5091766;28;20032;-95
2023/10/30 07:48:16;;;;;;;5.47;3.08;;;9.10;99.90;;;;;;5090159;28;20043;-95
2023/10/30 07:50:45;;;;;;;4.72;2.50;;;9.10;99.90;;;;;;5090571;28;20032;-95
2023/10/30 07:53:11;;;;;;;6.93;2.78;;;9.10;99.90;;;;;;5090309;28;20032;-96
2023/10/30 07:55:38;;;;;;;5.55;3.38;;;9.10;99.90;;;;;;5091271;28;20050;-95
2023/10/30 07:58:07;;;;;;;7.30;3.20;;;9.10;99.90;;;;;;5093651;28;20103;-95
2023/10/30 08:00:33;;;;;;;5.47;2.40;;;9.10;99.90;;;;;;5097251;28;20004;-92
2023/10/30 08:03:00;;;;;;;5.40;2.20;;;9.10;99.90;;;;;;5097978;28;20021;-92
2023/10/30 08:05:30;;;;;;;5.45;2.85;;;9.10;99.90;;;;;;5096788;28;20035;-95
2023/10/30 08:07:55;;;;;;;3.83;2.30;;;9.10;99.90;;;;;;5097213;28;20032;-90
2023/10/30 08:10:21;;;;;;;3.13;2.00;;;9.10;99.90;;;;;;5098045;28;20028;-92
2023/10/30 08:12:47;;;;;;;3.55;1.92;;;9.10;99.90;;;;;;5098006;28;20039;-90
2023/10/30 08:15:12;;;;;;;5.05;2.70;;;9.10;99.90;;;;;;5097896;28;20026;-89
2023/10/30 08:17:38;;;;;;;3.53;2.03;;;9.10;99.90;;;;;;5097816;28;20028;-88
2023/10/30 08:20:04;;;;;;;4.07;2.10;;;9.10;99.90;;;;;;5097898;28;20027;-92
2023/10/30 08:22:32;;;;;;;4.88;2.15;;;9.10;99.90;;;;;;5097842;28;20021;-89
2023/10/30 08:24:59;;;;;;;3.85;1.83;;;9.10;99.90;;;;;;5098472;28;20008;-89
2023/10/30 08:27:25;;;;;;;3.45;2.00;;;9.10;99.90;;;;;;5097565;28;20020;-90
2023/10/30 08:29:51;;;;;;;2.42;1.50;;;9.20;99.90;;;;;;5097679;28;20029;-90
2023/10/30 08:32:16;;;;;;;2.20;1.25;;;9.20;99.90;;;;;;5096880;28;20016;-90
2023/10/30 08:34:43;;;;;;;2.50;1.35;;;9.20;99.90;;;;;;5096739;28;20104;-89
2023/10/30 08:37:09;;;;;;;3.25;1.45;;;9.20;99.90;;;;;;5098049;28;20036;-89
2023/10/30 08:39:34;;;;;;;1.45;1.23;;;9.20;99.90;;;;;;5095819;28;20024;-91
2023/10/30 08:42:00;;;;;;;1.98;0.98;;;9.20;99.90;;;;;;5097214;28;20021;-89
2023/10/30 08:44:26;;;;;;;2.75;1.00;;;9.20;99.90;;;;;;5097340;28;20016;-92
2023/10/30 08:46:51;;;;;;;2.35;0.80;;;9.30;99.90;;;;;;5097396;28;20088;-88
2023/10/30 08:49:17;;;;;;;3.05;0.82;;;9.30;99.90;;;;;;5097319;28;20024;-87
2023/10/30 08:51:43;;;;;;;4.53;0.95;;;9.30;99.90;;;;;;5097980;28;20009;-91
2023/10/30 08:54:09;;;;;;;3.78;1.73;;;9.30;99.90;;;;;;5097219;28;20009;-87
2023/10/30 08:56:36;;;;;;;2.47;1.50;;;9.30;99.90;;;;;;5097129;28;20058;-88
2023/10/30 08:59:05;;;;;;;1.42;1.00;;;9.30;99.90;;;;;;5097189;28;20038;-89
2023/10/30 09:01:31;;;;;;;1.33;0.82;;;9.30;99.90;;;;;;5097832;28;20020;-87
2023/10/30 09:03:57;;;;;;;3.60;1.05;;;9.30;99.90;;;;;;5097158;28;20017;-88
2023/10/30 09:06:23;;;;;;;1.17;0.70;;;9.30;99.90;;;;;;5097644;28;20016;-93
2023/10/30 09:08:49;;;;;;;1.42;0.80;;;9.30;99.90;;;;;;5096125;28;20020;-95
2023/10/30 09:11:15;;;;;;;2.53;0.77;;;9.20;99.90;;;;;;5094445;28;20021;-94
2023/10/30 09:13:40;;;;;;;0.68;0.68;;;9.20;99.90;;;;;;5085431;28;20040;-95
2023/10/30 09:16:06;;;;;;;0.95;0.57;;;9.20;99.90;;;;;;5084587;28;20061;-94
2023/10/30 09:18:32;;;;;;;1.15;0.80;;;9.30;99.90;;;;;;5092393;28;20081;-92
2023/10/30 09:20:57;;;;;;;1.42;1.30;;;9.30;99.90;;;;;;5096969;28;20028;-90
2023/10/30 09:23:23;;;;;;;1.75;1.20;;;9.30;99.90;;;;;;5096905;28;20025;-91
2023/10/30 09:25:49;;;;;;;1.00;0.90;;;9.30;99.90;;;;;;5095831;28;20023;-92
2023/10/30 09:28:14;;;;;;;0.60;0.60;;;9.30;99.90;;;;;;5096923;28;20016;-90
2023/10/30 09:30:40;;;;;;;1.10;0.80;;;9.30;99.90;;;;;;5096954;28;20021;-89
2023/10/30 09:33:07;;;;;;;1.20;0.98;;;9.30;99.90;;;;;;5096765;28;20016;-89
2023/10/30 09:35:34;;;;;;;0.80;0.80;;;9.20;99.90;;;;;;5097388;28;20048;-87
2023/10/30 09:38:00;;;;;;;0.88;0.80;;;9.20;99.90;;;;;;5096576;28;20135;-92
2023/10/30 09:40:28;;;;;;;0.70;0.70;;;9.20;99.90;;;;;;5093964;28;20029;-93
2023/10/30 09:42:55;;;;;;;0.93;0.80;;;9.30;99.90;;;;;;5086910;28;20033;-94
2023/10/30 09:45:25;;;;;;;3.28;1.50;;;9.30;99.90;;;;;;5088420;28;20059;-94
2023/10/30 09:47:54;;;;;;;1.42;0.90;;;9.20;99.90;;;;;;5085986;28;20048;-94
2023/10/30 09:50:22;;;;;;;1.17;0.90;;;9.20;99.90;;;;;;5079408;28;20056;-94
2023/10/30 09:52:50;;;;;;;1.15;0.98;;;9.20;99.90;;;;;;5081961;28;20024;-94
2023/10/30 09:55:18;;;;;;;0.85;0.75;;;9.20;99.90;;;;;;5081720;28;20055;-93
2023/10/30 09:57:47;;;;;;;1.17;1.05;;;9.20;99.90;;;;;;5081698;28;20499;-94
2023/10/30 10:00:14;;;;;;;1.23;1.10;;;9.20;99.90;;;;;;5079391;28;20062;-94
2023/10/30 10:02:41;;;;;;;0.77;0.70;;;9.30;99.90;;;;;;5080842;28;20052;-93
2023/10/30 10:05:08;;;;;;;1.55;1.08;;;9.30;99.90;;;;;;5085329;28;20021;-95
2023/10/30 10:07:34;;;;;;;2.45;1.13;;;9.30;99.90;;;;;;5092642;28;20035;-94
2023/10/30 10:10:01;;;;;;;1.30;1.20;;;9.30;99.90;;;;;;5089830;28;20107;-96
2023/10/30 10:12:29;;;;;;;4.88;1.30;;;9.30;99.90;;;;;;5078021;28;20051;-94
2023/10/30 10:14:55;;;;;;;1.85;1.30;;;9.40;99.90;;;;;;5076677;28;20051;-94
2023/10/30 10:17:21;;;;;;;1.88;1.52;;;9.40;99.90;;;;;;5077628;28;20040;-95
2023/10/30 10:19:47;;;;;;;1.95;1.42;;;9.40;99.90;;;;;;5078332;28;20095;-96
2023/10/30 10:22:40;;;;;;;1.73;1.33;;;9.40;99.90;;;;;;5076855;28;20024;-95
2023/10/30 10:25:18;;;;;;;1.85;1.60;;;9.30;99.90;;;;;;5074271;28;20032;-93
2023/10/30 10:27:44;;;;;;;1.92;1.50;;;9.40;99.90;;;;;;5077497;28;20053;-93
2023/10/30 10:30:10;;;;;;;4.10;1.58;;;9.40;99.90;;;;;;5076279;28;20500;-93
2023/10/30 10:32:37;;;;;;;2.30;1.60;;;9.40;99.90;;;;;;5075883;28;20024;-95
2023/10/30 10:35:05;;;;;;;1.77;1.15;;;9.40;99.90;;;;;;5077608;28;20048;-94
2023/10/30 10:37:32;;;;;;;1.40;1.30;;;9.40;99.90;;;;;;5076029;28;20036;-93
2023/10/30 10:39:59;;;;;;;2.70;1.20;;;9.40;99.90;;;;;;5076715;28;20089;-95
2023/10/30 10:42:27;;;;;;;1.58;1.20;;;9.40;99.90;;;;;;5078686;28;20039;-95
2023/10/30 10:44:56;;;;;;;1.75;1.35;;;9.40;99.90;;;;;;5077472;28;20020;-95
2023/10/30 10:47:22;;;;;;;1.83;1.40;;;9.40;99.90;;;;;;5078877;28;20052;-94
2023/10/30 10:49:49;;;;;;;2.35;1.45;;;9.50;99.90;;;;;;5077741;28;20055;-95
2023/10/30 10:52:16;;;;;;;1.70;1.42;;;9.50;99.90;;;;;;5076636;28;20029;-95
2023/10/30 10:55:02;;;;;;;1.55;1.45;;;9.50;99.90;;;;;;5076331;28;20016;-94
2023/10/30 10:57:34;;;;;;;2.20;1.35;;;9.60;99.90;;;;;;5078446;28;20029;-94
2023/10/30 11:00:06;;;;;;;2.20;1.70;;;9.60;99.90;;;;;;5077163;28;20029;-94
2023/10/30 11:02:37;;;;;;;2.03;1.80;;;9.60;99.90;;;;;;5077625;28;20016;-96
2023/10/30 11:05:05;;;;;;;2.08;1.77;;;9.60;99.90;;;;;;5076078;28;20078;-94
2023/10/30 11:07:40;;;;;;;2.22;2.00;;;9.60;99.90;;;;;;5077196;28;20052;-96
2023/10/30 11:10:17;;;;;;;2.22;1.70;;;9.60;99.90;;;;;;5077163;28;20099;-93
2023/10/30 11:12:46;;;;;;;1.92;1.67;;;9.70;99.90;;;;;;5076597;28;20032;-95
2023/10/30 11:15:30;;;;;;;2.58;2.08;;;9.70;99.90;;;;;;5075579;28;20512;-94
2023/10/30 11:18:21;;;;;;;1.70;1.60;;;9.70;99.90;;;;;;5076928;28;20033;-95
2023/10/30 11:20:53;;;;;;;5.68;2.15;;;9.70;99.90;;;;;;5075236;28;20024;-93
2023/10/30 11:23:44;;;;;;;2.67;2.25;;;9.70;99.90;;;;;;5075689;28;20141;-93
2023/10/30 11:26:29;;;;;;;6.88;2.47;;;9.70;99.90;;;;;;5075595;28;20041;-93
2023/10/30 11:28:55;;;;;;;16.02;3.42;;;9.70;99.90;;;;;;5076651;28;20474;-96
2023/10/30 11:31:20;;;;;;;29.05;4.00;;;9.70;99.90;;;;;;5075515;28;20035;-96
2023/10/30 11:33:48;;;;;;;11.00;3.30;;;9.80;99.90;;;;;;5075192;28;20543;-95
2023/10/30 11:36:18;;;;;;;13.60;3.33;;;9.80;99.90;;;;;;5075361;28;20407;-95
2023/10/30 11:38:59;;;;;;;12.15;3.17;;;9.80;99.90;;;;;;5076294;28;20035;-94
2023/10/30 11:41:27;;;;;;;10.35;3.17;;;9.80;99.90;;;;;;5075600;28;20036;-94
2023/10/30 11:44:10;;;;;;;7.72;4.15;;;9.80;99.90;;;;;;5076783;28;20497;-96
2023/10/30 11:46:49;;;;;;;8.98;3.90;;;9.80;99.90;;;;;;5076021;28;20025;-95
2023/10/30 11:49:15;;;;;;;8.63;4.00;;;9.90;99.90;;;;;;5076211;28;20029;-94
2023/10/30 11:51:52;;;;;;;14.93;4.50;;;9.90;99.90;;;;;;5076437;28;20032;-94
2023/10/30 11:54:44;;;;;;;6.78;4.90;;;9.90;99.90;;;;;;5092165;28;20046;-94
2023/10/30 11:57:10;;;;;;;12.10;5.88;;;9.90;99.90;;;;;;5090286;28;20032;-92
2023/10/30 11:59:36;;;;;;;15.38;6.22;;;9.90;99.90;;;;;;5087252;28;20036;-94
2023/10/30 12:02:02;;;;;;;14.10;6.53;;;9.90;99.90;;;;;;5082351;28;20047;-93
2023/10/30 12:04:28;;;;;;;14.70;5.47;;;9.90;99.90;;;;;;5080834;28;20044;-95
2023/10/30 12:06:54;;;;;;;7.63;5.35;;;9.90;99.90;;;;;;5081466;28;20020;-96
2023/10/30 12:09:21;;;;;;;7.75;5.32;;;9.90;99.90;;;;;;5082022;28;20044;-96
2023/10/30 12:11:49;;;;;;;7.63;5.72;;;9.90;99.90;;;;;;5080151;28;20028;-95
2023/10/30 12:14:17;;;;;;;13.00;5.70;;;9.90;99.90;;;;;;5076464;28;20028;-95
2023/10/30 12:16:50;;;;;;;6.93;4.88;;;9.90;99.90;;;;;;5077697;28;20025;-96
2023/10/30 12:19:20;;;;;;;6.78;3.83;;;9.90;99.90;;;;;;5076703;28;20127;-94
2023/10/30 12:21:46;;;;;;;8.05;4.25;;;9.80;99.90;;;;;;5076150;28;20020;-96
2023/10/30 12:24:15;;;;;;;6.65;4.28;;;9.80;99.90;;;;;;5075753;28;20024;-96
2023/10/30 12:26:41;;;;;;;6.68;3.97;;;9.80;99.90;;;;;;5077578;28;20036;-96
2023/10/30 12:29:07;;;;;;;6.32;3.97;;;9.80;99.90;;;;;;5077196;28;20040;-96
2023/10/30 12:31:35;;;;;;;5.70;3.90;;;9.90;99.90;;;;;;5080002;28;20024;-94
2023/10/30 12:34:11;;;;;;;5.72;4.28;;;9.90;99.90;;;;;;5063752;28;20041;-95
2023/10/30 12:36:40;;;;;;;10.27;3.80;;;9.90;99.90;;;;;;5078801;28;20037;-95
2023/10/30 12:39:21;;;;;;;5.20;3.40;;;9.90;99.90;;;;;;5076593;28;20029;-94
2023/10/30 12:41:54;;;;;;;5.25;2.90;;;10.00;99.90;;;;;;5075807;28;20020;-94
2023/10/30 12:44:31;;;;;;;3.17;2.42;;;10.00;99.90;;;;;;5075133;28;20028;-95
2023/10/30 12:46:57;;;;;;;5.68;2.80;;;10.10;99.90;;;;;;5074962;28;20024;-96
2023/10/30 12:49:22;;;;;;;12.52;2.85;;;10.10;99.90;;;;;;5074760;28;20154;-94